Main page
METAR-TAF:

METAR-TAF

Airports :

Chiang Rai International Airport

Chiang Rai, Thailand

latitude: 19-57-08N, longitude: 099-52-59E, elevation: 390 m

Current weather observation

The report was made 22 minutes ago, at 18:00 UTC
Wind 3 kt from the East/Southeast
Temperature 12°C
Humidity 88%
Pressure 1023 hPa
Visibility 10 km or more
no clouds below 1500 m and no cumulonimbus

METAR: VTCT 061800Z 11003KT CAVOK 12/10 Q1023 NOSIG

Time: 01:22 (18:22 UTC)

Forecast

The report was made 1 hour and 22 minutes ago, at 17:00 UTC
Forecast valid from 06 at 18 UTC to 07 at 24 UTC
Wind 5 kt from the Northeast
Visibility 10 km or more
Few clouds at a height of 3000 ft

TAF: VTCT 061700Z 0618/0724 04005KT 9999 FEW030

Weather observations and forecasts of more than 4000 airports (METAR and TAF reports).

The available stations are represented by yellow and red dots on the map.

Hover mouse over dot to see the name of the station.

Then click to see weather observations and forecasts.

To change the map : click on the green buttons with a black cross to zoom in, on the green button with a dash to zoom out, or on the green arrows for adjacent maps.


METAR-TAF: